<?xml version="1.0" encoding="UTF-8" standalone="no" ?>
<gpx xmlns="http://www.topografix.com/GPX/1/1" xmlns:xsi="http://www.w3.org/2001/XMLSchema-instance" xsi:schemaLocation="http://www.topografix.com/GPX/1/1 http://www.topografix.com/GPX/1/1/gpx.xsd" version="1.1" creator="VisuGPX - https://www.visugpx.com">
  <metadata>
    <name>assemblage des fichiers GPX velofrancette ouistreham saumur</name>
    <desc><![CDATA[assemblage des fichiers GPX velofrancette ouistreham saumur]]></desc>
  </metadata>
  <trk>
    <name><![CDATA[20180702212037-57JBc]]></name>
    <trkseg>
      <trkpt lat="48.06811" lon="-0.76988">
        <ele>49</ele>
      </trkpt>
      <trkpt lat="48.06655" lon="-0.76864">
        <ele>49.1</ele>
      </trkpt>
      <trkpt lat="48.06606" lon="-0.76831">
        <ele>48.4</ele>
      </trkpt>
      <trkpt lat="48.06555" lon="-0.76786">
        <ele>47.7</ele>
      </trkpt>
      <trkpt lat="48.06554" lon="-0.76786">
        <ele>47.7</ele>
        <time>2014-04-19T13:16:08Z</time>
      </trkpt>
      <trkpt lat="48.06481" lon="-0.76728">
        <ele>47</ele>
        <time>2014-04-19T13:16:23Z</time>
      </trkpt>
      <trkpt lat="48.06402" lon="-0.76668">
        <ele>47.6</ele>
        <time>2014-04-19T13:16:38Z</time>
      </trkpt>
      <trkpt lat="48.06056" lon="-0.7639">
        <ele>47</ele>
        <time>2014-04-19T13:17:48Z</time>
      </trkpt>
      <trkpt lat="48.06034" lon="-0.76284">
        <ele>47</ele>
        <time>2014-04-19T13:17:58Z</time>
      </trkpt>
      <trkpt lat="48.05953" lon="-0.7617">
        <ele>45.3</ele>
        <time>2014-04-19T13:19:21Z</time>
      </trkpt>
      <trkpt lat="48.05873" lon="-0.76041">
        <ele>44.6</ele>
        <time>2014-04-19T13:20:14Z</time>
      </trkpt>
      <trkpt lat="48.0582" lon="-0.75978">
        <ele>44.7</ele>
        <time>2014-04-19T13:20:30Z</time>
      </trkpt>
      <trkpt lat="48.05754" lon="-0.75921">
        <ele>44.9</ele>
        <time>2014-04-19T13:20:45Z</time>
      </trkpt>
      <trkpt lat="48.05722" lon="-0.75912">
        <ele>44.6</ele>
        <time>2014-04-19T13:20:52Z</time>
      </trkpt>
      <trkpt lat="48.05649" lon="-0.75927">
        <ele>44.6</ele>
        <time>2014-04-19T13:21:07Z</time>
      </trkpt>
      <trkpt lat="48.05496" lon="-0.76015">
        <ele>44.5</ele>
        <time>2014-04-19T13:21:38Z</time>
      </trkpt>
      <trkpt lat="48.05464" lon="-0.76028">
        <ele>44.7</ele>
        <time>2014-04-19T13:21:45Z</time>
      </trkpt>
      <trkpt lat="48.0528" lon="-0.76084">
        <ele>44.1</ele>
        <time>2014-04-19T13:22:21Z</time>
      </trkpt>
      <trkpt lat="48.05152" lon="-0.76127">
        <ele>44.1</ele>
        <time>2014-04-19T13:22:44Z</time>
      </trkpt>
      <trkpt lat="48.05132" lon="-0.76138">
        <ele>44.4</ele>
        <time>2014-04-19T13:22:48Z</time>
      </trkpt>
      <trkpt lat="48.05106" lon="-0.76179">
        <ele>44.6</ele>
        <time>2014-04-19T13:22:56Z</time>
      </trkpt>
      <trkpt lat="48.05079" lon="-0.7625">
        <ele>44.7</ele>
        <time>2014-04-19T13:23:09Z</time>
      </trkpt>
      <trkpt lat="48.05014" lon="-0.76362">
        <ele>44.6</ele>
        <time>2014-04-19T13:23:33Z</time>
      </trkpt>
      <trkpt lat="48.04978" lon="-0.7641">
        <ele>44.8</ele>
        <time>2014-04-19T13:23:42Z</time>
      </trkpt>
      <trkpt lat="48.04849" lon="-0.76543">
        <ele>45.2</ele>
        <time>2014-04-19T13:24:13Z</time>
      </trkpt>
      <trkpt lat="48.0466" lon="-0.7662">
        <ele>45.1</ele>
        <time>2014-04-19T13:24:54Z</time>
      </trkpt>
      <trkpt lat="48.04603" lon="-0.76622">
        <ele>46.7</ele>
        <time>2014-04-19T13:25:11Z</time>
      </trkpt>
      <trkpt lat="48.04498" lon="-0.76617">
        <ele>45.4</ele>
        <time>2014-04-19T13:25:52Z</time>
      </trkpt>
      <trkpt lat="48.04284" lon="-0.76599">
        <ele>45.9</ele>
        <time>2014-04-19T13:26:27Z</time>
      </trkpt>
      <trkpt lat="48.03919" lon="-0.76358">
        <ele>45.5</ele>
        <time>2014-04-19T13:27:33Z</time>
      </trkpt>
      <trkpt lat="48.03744" lon="-0.76084">
        <ele>44.6</ele>
        <time>2014-04-19T13:28:15Z</time>
      </trkpt>
      <trkpt lat="48.03646" lon="-0.75927">
        <ele>44.4</ele>
        <time>2014-04-19T13:28:38Z</time>
      </trkpt>
      <trkpt lat="48.03593" lon="-0.75871">
        <ele>45.3</ele>
        <time>2014-04-19T13:28:51Z</time>
      </trkpt>
      <trkpt lat="48.03489" lon="-0.75761">
        <ele>43.8</ele>
        <time>2014-04-19T13:29:19Z</time>
      </trkpt>
      <trkpt lat="48.03385" lon="-0.75711">
        <ele>42.8</ele>
        <time>2014-04-19T13:29:42Z</time>
      </trkpt>
      <trkpt lat="48.03344" lon="-0.75713">
        <ele>43</ele>
        <time>2014-04-19T13:29:49Z</time>
      </trkpt>
      <trkpt lat="48.03312" lon="-0.75744">
        <ele>42.9</ele>
        <time>2014-04-19T13:29:55Z</time>
      </trkpt>
      <trkpt lat="48.0324" lon="-0.75861">
        <ele>42.9</ele>
        <time>2014-04-19T13:30:12Z</time>
      </trkpt>
      <trkpt lat="48.03182" lon="-0.75909">
        <ele>43.3</ele>
        <time>2014-04-19T13:30:25Z</time>
      </trkpt>
      <trkpt lat="48.03087" lon="-0.75935">
        <ele>43.6</ele>
        <time>2014-04-19T13:32:16Z</time>
      </trkpt>
      <trkpt lat="48.03061" lon="-0.75919">
        <ele>43.8</ele>
        <time>2014-04-19T13:32:22Z</time>
      </trkpt>
      <trkpt lat="48.03001" lon="-0.75851">
        <ele>44.5</ele>
        <time>2014-04-19T13:32:38Z</time>
      </trkpt>
      <trkpt lat="48.02913" lon="-0.75715">
        <ele>47.1</ele>
        <time>2014-04-19T13:35:58Z</time>
      </trkpt>
      <trkpt lat="48.02851" lon="-0.75622">
        <ele>47.9</ele>
        <time>2014-04-19T13:36:21Z</time>
      </trkpt>
      <trkpt lat="48.0272" lon="-0.75426">
        <ele>44.5</ele>
        <time>2014-04-19T13:36:58Z</time>
      </trkpt>
      <trkpt lat="48.02636" lon="-0.75219">
        <ele>43.9</ele>
        <time>2014-04-19T13:37:31Z</time>
      </trkpt>
      <trkpt lat="48.02613" lon="-0.75188">
        <ele>43.4</ele>
        <time>2014-04-19T13:37:38Z</time>
      </trkpt>
      <trkpt lat="48.02566" lon="-0.75124">
        <ele>43.2</ele>
        <time>2014-04-19T13:37:51Z</time>
      </trkpt>
      <trkpt lat="48.02503" lon="-0.75039">
        <ele>42.3</ele>
        <time>2014-04-19T13:38:06Z</time>
      </trkpt>
      <trkpt lat="48.02389" lon="-0.74923">
        <ele>42.4</ele>
        <time>2014-04-19T13:38:33Z</time>
      </trkpt>
      <trkpt lat="48.02152" lon="-0.74725">
        <ele>42.6</ele>
        <time>2014-04-19T13:42:01Z</time>
      </trkpt>
      <trkpt lat="48.02082" lon="-0.74636">
        <ele>42.8</ele>
        <time>2014-04-19T13:42:20Z</time>
      </trkpt>
      <trkpt lat="48.02035" lon="-0.74588">
        <ele>42.6</ele>
        <time>2014-04-19T13:42:33Z</time>
      </trkpt>
      <trkpt lat="48.01919" lon="-0.74495">
        <ele>42.6</ele>
        <time>2014-04-19T13:43:00Z</time>
      </trkpt>
      <trkpt lat="48.01618" lon="-0.74379">
        <ele>43.9</ele>
        <time>2014-04-19T13:44:04Z</time>
      </trkpt>
      <trkpt lat="48.01242" lon="-0.74104">
        <ele>45.1</ele>
        <time>2014-04-19T13:45:27Z</time>
      </trkpt>
      <trkpt lat="48.01219" lon="-0.74099">
        <ele>47.3</ele>
        <time>2014-04-19T13:45:35Z</time>
      </trkpt>
      <trkpt lat="48.01146" lon="-0.7406">
        <ele>43.3</ele>
        <time>2014-04-19T13:45:57Z</time>
      </trkpt>
      <trkpt lat="48.00832" lon="-0.73932">
        <ele>40.6</ele>
        <time>2014-04-19T13:47:08Z</time>
      </trkpt>
      <trkpt lat="48.00519" lon="-0.73963">
        <ele>41.3</ele>
        <time>2014-04-19T13:48:05Z</time>
      </trkpt>
      <trkpt lat="48.00419" lon="-0.73917">
        <ele>41.9</ele>
        <time>2014-04-19T13:48:25Z</time>
      </trkpt>
      <trkpt lat="48.0038" lon="-0.73875">
        <ele>42.6</ele>
        <time>2014-04-19T13:48:34Z</time>
      </trkpt>
      <trkpt lat="48.00311" lon="-0.73825">
        <ele>41.4</ele>
        <time>2014-04-19T13:48:50Z</time>
      </trkpt>
      <trkpt lat="48.00113" lon="-0.73884">
        <ele>44.1</ele>
        <time>2014-04-19T13:49:27Z</time>
      </trkpt>
      <trkpt lat="48.00068" lon="-0.73903">
        <ele>43.6</ele>
        <time>2014-04-19T13:49:39Z</time>
      </trkpt>
      <trkpt lat="47.99916" lon="-0.74065">
        <ele>41</ele>
        <time>2014-04-19T13:50:13Z</time>
      </trkpt>
      <trkpt lat="47.99778" lon="-0.74117">
        <ele>40</ele>
        <time>2014-04-19T13:50:43Z</time>
      </trkpt>
      <trkpt lat="47.9971" lon="-0.7414">
        <ele>39.6</ele>
        <time>2014-04-19T13:50:58Z</time>
      </trkpt>
      <trkpt lat="47.9969" lon="-0.74147">
        <ele>39.7</ele>
        <time>2014-04-19T13:51:04Z</time>
      </trkpt>
      <trkpt lat="47.993" lon="-0.74291">
        <ele>39.3</ele>
        <time>2014-04-19T13:52:28Z</time>
      </trkpt>
      <trkpt lat="47.99167" lon="-0.74295">
        <ele>40.4</ele>
        <time>2014-04-19T13:52:57Z</time>
      </trkpt>
      <trkpt lat="47.9884" lon="-0.74115">
        <ele>39.7</ele>
        <time>2014-04-19T13:54:11Z</time>
      </trkpt>
      <trkpt lat="47.98763" lon="-0.74079">
        <ele>38.4</ele>
        <time>2014-04-19T13:54:30Z</time>
      </trkpt>
      <trkpt lat="47.98648" lon="-0.74024">
        <ele>38.1</ele>
        <time>2014-04-19T13:54:51Z</time>
      </trkpt>
      <trkpt lat="47.98597" lon="-0.73983">
        <ele>40.6</ele>
        <time>2014-04-19T13:55:01Z</time>
      </trkpt>
      <trkpt lat="47.98529" lon="-0.73866">
        <ele>40.2</ele>
        <time>2014-04-19T13:55:20Z</time>
      </trkpt>
      <trkpt lat="47.9851" lon="-0.73814">
        <ele>40.8</ele>
        <time>2014-04-19T13:55:27Z</time>
      </trkpt>
      <trkpt lat="47.98503" lon="-0.73739">
        <ele>38.6</ele>
        <time>2014-04-19T13:55:36Z</time>
      </trkpt>
      <trkpt lat="47.98519" lon="-0.73682">
        <ele>40.7</ele>
        <time>2014-04-19T13:55:44Z</time>
      </trkpt>
      <trkpt lat="47.98543" lon="-0.73645">
        <ele>44.2</ele>
        <time>2014-04-19T13:55:50Z</time>
      </trkpt>
      <trkpt lat="47.98568" lon="-0.73591">
        <ele>44.6</ele>
        <time>2014-04-19T13:56:01Z</time>
      </trkpt>
      <trkpt lat="47.98577" lon="-0.7346">
        <ele>37.5</ele>
        <time>2014-04-19T13:56:18Z</time>
      </trkpt>
      <trkpt lat="47.98549" lon="-0.7333">
        <ele>37.1</ele>
        <time>2014-04-19T13:56:33Z</time>
      </trkpt>
      <trkpt lat="47.98505" lon="-0.73214">
        <ele>37.4</ele>
        <time>2014-04-19T13:56:48Z</time>
      </trkpt>
      <trkpt lat="47.98484" lon="-0.73169">
        <ele>37.2</ele>
        <time>2014-04-19T13:56:57Z</time>
      </trkpt>
      <trkpt lat="47.98384" lon="-0.72964">
        <ele>37.5</ele>
        <time>2014-04-19T13:57:31Z</time>
      </trkpt>
      <trkpt lat="47.98344" lon="-0.72912">
        <ele>37.4</ele>
        <time>2014-04-19T13:57:40Z</time>
      </trkpt>
      <trkpt lat="47.98319" lon="-0.72905">
        <ele>37.4</ele>
        <time>2014-04-19T13:57:45Z</time>
      </trkpt>
      <trkpt lat="47.9828" lon="-0.72936">
        <ele>37.4</ele>
        <time>2014-04-19T13:57:53Z</time>
      </trkpt>
      <trkpt lat="47.98256" lon="-0.72947">
        <ele>37.5</ele>
        <time>2014-04-19T13:57:59Z</time>
      </trkpt>
      <trkpt lat="47.98154" lon="-0.73011">
        <ele>36.9</ele>
        <time>2014-04-19T13:58:29Z</time>
      </trkpt>
      <trkpt lat="47.98016" lon="-0.72956">
        <ele>37.5</ele>
        <time>2014-04-19T13:59:04Z</time>
      </trkpt>
      <trkpt lat="47.97843" lon="-0.72754">
        <ele>36.8</ele>
        <time>2014-04-19T13:59:39Z</time>
      </trkpt>
      <trkpt lat="47.97666" lon="-0.72632">
        <ele>37.4</ele>
        <time>2014-04-19T14:00:10Z</time>
      </trkpt>
      <trkpt lat="47.97613" lon="-0.72615">
        <ele>36.9</ele>
        <time>2014-04-19T14:00:20Z</time>
      </trkpt>
      <trkpt lat="47.97446" lon="-0.72647">
        <ele>36.6</ele>
        <time>2014-04-19T14:00:48Z</time>
      </trkpt>
      <trkpt lat="47.97331" lon="-0.72615">
        <ele>37.2</ele>
        <time>2014-04-19T14:01:06Z</time>
      </trkpt>
      <trkpt lat="47.97288" lon="-0.72581">
        <ele>37.2</ele>
        <time>2014-04-19T14:01:14Z</time>
      </trkpt>
      <trkpt lat="47.97209" lon="-0.72483">
        <ele>37</ele>
        <time>2014-04-19T14:01:30Z</time>
      </trkpt>
      <trkpt lat="47.97102" lon="-0.72143">
        <ele>36.4</ele>
        <time>2014-04-19T14:02:14Z</time>
      </trkpt>
      <trkpt lat="47.97057" lon="-0.72092">
        <ele>36.3</ele>
        <time>2014-04-19T14:02:24Z</time>
      </trkpt>
      <trkpt lat="47.97005" lon="-0.72094">
        <ele>37</ele>
        <time>2014-04-19T14:02:33Z</time>
      </trkpt>
      <trkpt lat="47.96974" lon="-0.72122">
        <ele>36.5</ele>
        <time>2014-04-19T14:02:39Z</time>
      </trkpt>
      <trkpt lat="47.96928" lon="-0.72197">
        <ele>36.5</ele>
        <time>2014-04-19T14:02:50Z</time>
      </trkpt>
      <trkpt lat="47.96857" lon="-0.7231">
        <ele>37.1</ele>
        <time>2014-04-19T14:03:07Z</time>
      </trkpt>
      <trkpt lat="47.96839" lon="-0.72339">
        <ele>38</ele>
        <time>2014-04-19T14:03:13Z</time>
      </trkpt>
      <trkpt lat="47.9676" lon="-0.72473">
        <ele>35.7</ele>
        <time>2014-04-19T14:03:36Z</time>
      </trkpt>
      <trkpt lat="47.96731" lon="-0.72558">
        <ele>35</ele>
        <time>2014-04-19T14:03:48Z</time>
      </trkpt>
      <trkpt lat="47.9666" lon="-0.72732">
        <ele>36.1</ele>
        <time>2014-04-19T14:04:15Z</time>
      </trkpt>
      <trkpt lat="47.96633" lon="-0.72778">
        <ele>36.4</ele>
        <time>2014-04-19T14:04:24Z</time>
      </trkpt>
      <trkpt lat="47.96491" lon="-0.72956">
        <ele>35.9</ele>
        <time>2014-04-19T14:05:01Z</time>
      </trkpt>
      <trkpt lat="47.96396" lon="-0.73019">
        <ele>36.1</ele>
        <time>2014-04-19T14:05:20Z</time>
      </trkpt>
      <trkpt lat="47.96334" lon="-0.73034">
        <ele>35.5</ele>
        <time>2014-04-19T14:05:32Z</time>
      </trkpt>
      <trkpt lat="47.963" lon="-0.73042">
        <ele>35.5</ele>
        <time>2014-04-19T14:05:38Z</time>
      </trkpt>
      <trkpt lat="47.9609" lon="-0.73027">
        <ele>36</ele>
        <time>2014-04-19T14:06:16Z</time>
      </trkpt>
      <trkpt lat="47.95975" lon="-0.72944">
        <ele>36.7</ele>
        <time>2014-04-19T14:06:39Z</time>
      </trkpt>
      <trkpt lat="47.95954" lon="-0.72914">
        <ele>36.4</ele>
        <time>2014-04-19T14:06:45Z</time>
      </trkpt>
      <trkpt lat="47.95795" lon="-0.72704">
        <ele>37.2</ele>
        <time>2014-04-19T14:07:30Z</time>
      </trkpt>
      <trkpt lat="47.95704" lon="-0.725">
        <ele>40.3</ele>
        <time>2014-04-19T14:10:31Z</time>
      </trkpt>
      <trkpt lat="47.95698" lon="-0.72413">
        <ele>39.5</ele>
        <time>2014-04-19T14:10:52Z</time>
      </trkpt>
      <trkpt lat="47.95693" lon="-0.72327">
        <ele>36</ele>
        <time>2014-04-19T14:11:07Z</time>
      </trkpt>
      <trkpt lat="47.95664" lon="-0.72226">
        <ele>35.6</ele>
        <time>2014-04-19T14:11:26Z</time>
      </trkpt>
      <trkpt lat="47.9561" lon="-0.72092">
        <ele>35.4</ele>
        <time>2014-04-19T14:11:54Z</time>
      </trkpt>
      <trkpt lat="47.95572" lon="-0.72036">
        <ele>35.7</ele>
        <time>2014-04-19T14:12:08Z</time>
      </trkpt>
      <trkpt lat="47.95566" lon="-0.72029">
        <ele>35.7</ele>
        <time>2014-04-19T14:12:10Z</time>
      </trkpt>
      <trkpt lat="47.95502" lon="-0.71999">
        <ele>35.8</ele>
        <time>2014-04-19T14:22:44Z</time>
      </trkpt>
      <trkpt lat="47.95399" lon="-0.72004">
        <ele>35.5</ele>
        <time>2014-04-19T14:23:10Z</time>
      </trkpt>
      <trkpt lat="47.95197" lon="-0.72054">
        <ele>35.9</ele>
        <time>2014-04-19T14:24:03Z</time>
      </trkpt>
      <trkpt lat="47.9499" lon="-0.72048">
        <ele>36</ele>
        <time>2014-04-19T14:31:17Z</time>
      </trkpt>
      <trkpt lat="47.94968" lon="-0.72048">
        <ele>35.2</ele>
        <time>2014-04-19T14:31:23Z</time>
      </trkpt>
      <trkpt lat="47.9473" lon="-0.72045">
        <ele>35.3</ele>
        <time>2014-04-19T14:32:09Z</time>
      </trkpt>
      <trkpt lat="47.946" lon="-0.71993">
        <ele>35.9</ele>
        <time>2014-04-19T14:32:33Z</time>
      </trkpt>
      <trkpt lat="47.94551" lon="-0.71935">
        <ele>36.9</ele>
        <time>2014-04-19T14:32:45Z</time>
      </trkpt>
      <trkpt lat="47.94539" lon="-0.71841">
        <ele>41.4</ele>
        <time>2014-04-19T14:32:59Z</time>
      </trkpt>
      <trkpt lat="47.9454" lon="-0.71816">
        <ele>40.4</ele>
        <time>2014-04-19T14:33:02Z</time>
      </trkpt>
      <trkpt lat="47.94524" lon="-0.71611">
        <ele>35.9</ele>
        <time>2014-04-19T14:33:28Z</time>
      </trkpt>
      <trkpt lat="47.94468" lon="-0.71403">
        <ele>34.9</ele>
        <time>2014-04-19T14:33:56Z</time>
      </trkpt>
      <trkpt lat="47.94406" lon="-0.71301">
        <ele>34.5</ele>
        <time>2014-04-19T14:34:17Z</time>
      </trkpt>
      <trkpt lat="47.94301" lon="-0.71199">
        <ele>34.5</ele>
        <time>2014-04-19T14:34:45Z</time>
      </trkpt>
      <trkpt lat="47.94143" lon="-0.71154">
        <ele>35.9</ele>
        <time>2014-04-19T14:35:14Z</time>
      </trkpt>
      <trkpt lat="47.93972" lon="-0.71007">
        <ele>34.9</ele>
        <time>2014-04-19T14:35:50Z</time>
      </trkpt>
      <trkpt lat="47.93886" lon="-0.70959">
        <ele>34.1</ele>
        <time>2014-04-19T14:36:08Z</time>
      </trkpt>
      <trkpt lat="47.93825" lon="-0.70937">
        <ele>34.5</ele>
        <time>2014-04-19T14:36:25Z</time>
      </trkpt>
      <trkpt lat="47.93615" lon="-0.70951">
        <ele>35.7</ele>
        <time>2014-04-19T14:37:23Z</time>
      </trkpt>
      <trkpt lat="47.93538" lon="-0.70933">
        <ele>38.3</ele>
        <time>2014-04-19T14:37:46Z</time>
      </trkpt>
      <trkpt lat="47.93463" lon="-0.70886">
        <ele>37.5</ele>
        <time>2014-04-19T14:38:06Z</time>
      </trkpt>
      <trkpt lat="47.93447" lon="-0.70869">
        <ele>37.7</ele>
        <time>2014-04-19T14:38:11Z</time>
      </trkpt>
      <trkpt lat="47.93339" lon="-0.70731">
        <ele>34.8</ele>
        <time>2014-04-19T14:38:44Z</time>
      </trkpt>
      <trkpt lat="47.93165" lon="-0.70628">
        <ele>32.9</ele>
        <time>2014-04-19T14:39:15Z</time>
      </trkpt>
      <trkpt lat="47.93063" lon="-0.70631">
        <ele>33.2</ele>
        <time>2014-04-19T14:39:33Z</time>
      </trkpt>
      <trkpt lat="47.93013" lon="-0.70709">
        <ele>33</ele>
        <time>2014-04-19T14:39:46Z</time>
      </trkpt>
      <trkpt lat="47.92929" lon="-0.70871">
        <ele>32.5</ele>
        <time>2014-04-19T14:44:13Z</time>
      </trkpt>
      <trkpt lat="47.92925" lon="-0.70924">
        <ele>33.1</ele>
        <time>2014-04-19T14:44:20Z</time>
      </trkpt>
      <trkpt lat="47.92946" lon="-0.70977">
        <ele>33.5</ele>
        <time>2014-04-19T14:44:28Z</time>
      </trkpt>
      <trkpt lat="47.93021" lon="-0.71058">
        <ele>33.1</ele>
        <time>2014-04-19T14:44:43Z</time>
      </trkpt>
      <trkpt lat="47.93116" lon="-0.71195">
        <ele>33.8</ele>
        <time>2014-04-19T14:45:03Z</time>
      </trkpt>
      <trkpt lat="47.93222" lon="-0.71364">
        <ele>34.7</ele>
        <time>2014-04-19T14:45:28Z</time>
      </trkpt>
      <trkpt lat="47.93241" lon="-0.7141">
        <ele>33.6</ele>
        <time>2014-04-19T14:45:34Z</time>
      </trkpt>
      <trkpt lat="47.93269" lon="-0.71533">
        <ele>34.9</ele>
        <time>2014-04-19T14:45:47Z</time>
      </trkpt>
      <trkpt lat="47.93291" lon="-0.71931">
        <ele>32.9</ele>
        <time>2014-04-19T14:48:45Z</time>
      </trkpt>
      <trkpt lat="47.93296" lon="-0.72155">
        <ele>33.6</ele>
        <time>2014-04-19T14:49:20Z</time>
      </trkpt>
      <trkpt lat="47.93281" lon="-0.72304">
        <ele>33.5</ele>
        <time>2014-04-19T14:49:40Z</time>
      </trkpt>
      <trkpt lat="47.93223" lon="-0.7245">
        <ele>36.3</ele>
        <time>2014-04-19T14:50:05Z</time>
      </trkpt>
      <trkpt lat="47.9319" lon="-0.72477">
        <ele>35.4</ele>
        <time>2014-04-19T14:50:12Z</time>
      </trkpt>
      <trkpt lat="47.93156" lon="-0.72499">
        <ele>35.1</ele>
        <time>2014-04-19T14:50:19Z</time>
      </trkpt>
      <trkpt lat="47.9309" lon="-0.72531">
        <ele>35.1</ele>
        <time>2014-04-19T14:50:31Z</time>
      </trkpt>
      <trkpt lat="47.93068" lon="-0.72518">
        <ele>32.8</ele>
        <time>2014-04-19T14:50:35Z</time>
      </trkpt>
      <trkpt lat="47.9293" lon="-0.72611">
        <ele>32.5</ele>
        <time>2014-04-19T14:51:06Z</time>
      </trkpt>
      <trkpt lat="47.92793" lon="-0.72737">
        <ele>32.6</ele>
        <time>2014-04-19T14:51:32Z</time>
      </trkpt>
      <trkpt lat="47.92678" lon="-0.72885">
        <ele>32.8</ele>
        <time>2014-04-19T14:51:55Z</time>
      </trkpt>
      <trkpt lat="47.92512" lon="-0.73071">
        <ele>32.5</ele>
        <time>2014-04-19T14:52:26Z</time>
      </trkpt>
      <trkpt lat="47.92353" lon="-0.73248">
        <ele>33.5</ele>
        <time>2014-04-19T14:52:57Z</time>
      </trkpt>
      <trkpt lat="47.92243" lon="-0.7326">
        <ele>35.3</ele>
        <time>2014-04-19T14:53:17Z</time>
      </trkpt>
      <trkpt lat="47.92066" lon="-0.73229">
        <ele>34.5</ele>
        <time>2014-04-19T14:53:47Z</time>
      </trkpt>
      <trkpt lat="47.91994" lon="-0.73174">
        <ele>36.7</ele>
        <time>2014-04-19T14:54:06Z</time>
      </trkpt>
      <trkpt lat="47.91904" lon="-0.73068">
        <ele>35.4</ele>
        <time>2014-04-19T14:54:26Z</time>
      </trkpt>
      <trkpt lat="47.91611" lon="-0.7289">
        <ele>33.2</ele>
        <time>2014-04-19T14:55:15Z</time>
      </trkpt>
      <trkpt lat="47.91545" lon="-0.72846">
        <ele>34</ele>
        <time>2014-04-19T14:55:29Z</time>
      </trkpt>
      <trkpt lat="47.91511" lon="-0.72815">
        <ele>34</ele>
        <time>2014-04-19T14:55:39Z</time>
      </trkpt>
      <trkpt lat="47.91474" lon="-0.72771">
        <ele>33.8</ele>
        <time>2014-04-19T14:55:52Z</time>
      </trkpt>
      <trkpt lat="47.91374" lon="-0.72675">
        <ele>33.3</ele>
        <time>2014-04-19T14:56:21Z</time>
      </trkpt>
      <trkpt lat="47.91356" lon="-0.72632">
        <ele>32.9</ele>
        <time>2014-04-19T14:56:27Z</time>
      </trkpt>
      <trkpt lat="47.91276" lon="-0.72467">
        <ele>34</ele>
        <time>2014-04-19T14:56:59Z</time>
      </trkpt>
      <trkpt lat="47.91273" lon="-0.72469">
        <ele>34.7</ele>
        <time>2014-04-19T14:57:05Z</time>
      </trkpt>
      <trkpt lat="47.91236" lon="-0.7245">
        <ele>36.7</ele>
        <time>2014-04-19T14:57:09Z</time>
      </trkpt>
      <trkpt lat="47.91206" lon="-0.72408">
        <ele>34.1</ele>
        <time>2014-04-19T14:57:20Z</time>
      </trkpt>
      <trkpt lat="47.91184" lon="-0.72381">
        <ele>34.9</ele>
        <time>2014-04-19T14:57:27Z</time>
      </trkpt>
      <trkpt lat="47.9115" lon="-0.72297">
        <ele>38</ele>
        <time>2014-04-19T14:57:47Z</time>
      </trkpt>
      <trkpt lat="47.91144" lon="-0.72277">
        <ele>35.9</ele>
        <time>2014-04-19T14:57:50Z</time>
      </trkpt>
      <trkpt lat="47.91082" lon="-0.72122">
        <ele>37.8</ele>
        <time>2014-04-19T14:58:15Z</time>
      </trkpt>
      <trkpt lat="47.91051" lon="-0.71886">
        <ele>33.8</ele>
        <time>2014-04-19T14:58:47Z</time>
      </trkpt>
      <trkpt lat="47.90955" lon="-0.7152">
        <ele>31.6</ele>
        <time>2014-04-19T14:59:46Z</time>
      </trkpt>
      <trkpt lat="47.90939" lon="-0.71221">
        <ele>32</ele>
        <time>2014-04-19T15:00:30Z</time>
      </trkpt>
      <trkpt lat="47.90885" lon="-0.7103">
        <ele>32.9</ele>
        <time>2014-04-19T15:08:21Z</time>
      </trkpt>
      <trkpt lat="47.90863" lon="-0.70963">
        <ele>31.6</ele>
        <time>2014-04-19T15:08:38Z</time>
      </trkpt>
      <trkpt lat="47.90818" lon="-0.70824">
        <ele>30.7</ele>
        <time>2014-04-19T15:09:02Z</time>
      </trkpt>
      <trkpt lat="47.90593" lon="-0.70401">
        <ele>31.3</ele>
        <time>2014-04-19T15:10:14Z</time>
      </trkpt>
      <trkpt lat="47.90442" lon="-0.70201">
        <ele>32.8</ele>
        <time>2014-04-19T15:10:50Z</time>
      </trkpt>
      <trkpt lat="47.90409" lon="-0.70121">
        <ele>33.1</ele>
        <time>2014-04-19T15:11:03Z</time>
      </trkpt>
      <trkpt lat="47.90396" lon="-0.70099">
        <ele>33.5</ele>
        <time>2014-04-19T15:11:07Z</time>
      </trkpt>
      <trkpt lat="47.9031" lon="-0.69915">
        <ele>33.2</ele>
        <time>2014-04-19T15:11:37Z</time>
      </trkpt>
      <trkpt lat="47.90246" lon="-0.69793">
        <ele>31.3</ele>
        <time>2014-04-19T15:11:54Z</time>
      </trkpt>
      <trkpt lat="47.90166" lon="-0.69684">
        <ele>31.3</ele>
        <time>2014-04-19T15:12:12Z</time>
      </trkpt>
      <trkpt lat="47.9006" lon="-0.69594">
        <ele>30.4</ele>
        <time>2014-04-19T15:12:32Z</time>
      </trkpt>
      <trkpt lat="47.9" lon="-0.69552">
        <ele>31.8</ele>
        <time>2014-04-19T15:12:43Z</time>
      </trkpt>
      <trkpt lat="47.89812" lon="-0.69375">
        <ele>30.9</ele>
        <time>2014-04-19T15:13:21Z</time>
      </trkpt>
      <trkpt lat="47.89778" lon="-0.69343">
        <ele>31.3</ele>
        <time>2014-04-19T15:13:28Z</time>
      </trkpt>
      <trkpt lat="47.89741" lon="-0.69278">
        <ele>33.6</ele>
        <time>2014-04-19T15:13:39Z</time>
      </trkpt>
      <trkpt lat="47.89729" lon="-0.69232">
        <ele>32.8</ele>
        <time>2014-04-19T15:13:46Z</time>
      </trkpt>
      <trkpt lat="47.89684" lon="-0.69153">
        <ele>31.1</ele>
        <time>2014-04-19T15:14:01Z</time>
      </trkpt>
      <trkpt lat="47.89599" lon="-0.6906">
        <ele>31.5</ele>
        <time>2014-04-19T15:14:19Z</time>
      </trkpt>
      <trkpt lat="47.89567" lon="-0.69042">
        <ele>31.6</ele>
        <time>2014-04-19T15:14:25Z</time>
      </trkpt>
      <trkpt lat="47.89518" lon="-0.6903">
        <ele>31.7</ele>
        <time>2014-04-19T15:14:33Z</time>
      </trkpt>
      <trkpt lat="47.89385" lon="-0.69065">
        <ele>30.7</ele>
        <time>2014-04-19T15:14:53Z</time>
      </trkpt>
      <trkpt lat="47.89218" lon="-0.69108">
        <ele>31.6</ele>
        <time>2014-04-19T15:15:19Z</time>
      </trkpt>
      <trkpt lat="47.89175" lon="-0.69131">
        <ele>30.8</ele>
        <time>2014-04-19T15:15:27Z</time>
      </trkpt>
      <trkpt lat="47.89121" lon="-0.69207">
        <ele>31</ele>
        <time>2014-04-19T15:15:41Z</time>
      </trkpt>
      <trkpt lat="47.89082" lon="-0.69277">
        <ele>31.8</ele>
        <time>2014-04-19T15:15:55Z</time>
      </trkpt>
      <trkpt lat="47.89024" lon="-0.69375">
        <ele>31.4</ele>
        <time>2014-04-19T15:16:21Z</time>
      </trkpt>
      <trkpt lat="47.88936" lon="-0.69509">
        <ele>30.8</ele>
        <time>2014-04-19T15:16:56Z</time>
      </trkpt>
      <trkpt lat="47.88776" lon="-0.69664">
        <ele>30.8</ele>
        <time>2014-04-19T15:17:32Z</time>
      </trkpt>
      <trkpt lat="47.88729" lon="-0.697">
        <ele>29.8</ele>
        <time>2014-04-19T15:17:42Z</time>
      </trkpt>
      <trkpt lat="47.88566" lon="-0.69787">
        <ele>29.9</ele>
        <time>2014-04-19T15:18:12Z</time>
      </trkpt>
      <trkpt lat="47.88287" lon="-0.69899">
        <ele>30.2</ele>
        <time>2014-04-19T15:19:02Z</time>
      </trkpt>
      <trkpt lat="47.88249" lon="-0.69925">
        <ele>30</ele>
        <time>2014-04-19T15:19:09Z</time>
      </trkpt>
      <trkpt lat="47.88185" lon="-0.70022">
        <ele>29.7</ele>
        <time>2014-04-19T15:19:26Z</time>
      </trkpt>
      <trkpt lat="47.88131" lon="-0.70128">
        <ele>29.7</ele>
        <time>2014-04-19T15:19:44Z</time>
      </trkpt>
      <trkpt lat="47.88098" lon="-0.70175">
        <ele>29.8</ele>
        <time>2014-04-19T15:19:52Z</time>
      </trkpt>
      <trkpt lat="47.87998" lon="-0.70292">
        <ele>30.9</ele>
        <time>2014-04-19T15:20:15Z</time>
      </trkpt>
      <trkpt lat="47.87865" lon="-0.70385">
        <ele>31.7</ele>
        <time>2014-04-19T15:20:42Z</time>
      </trkpt>
      <trkpt lat="47.87758" lon="-0.70419">
        <ele>30.4</ele>
        <time>2014-04-19T15:21:00Z</time>
      </trkpt>
      <trkpt lat="47.87619" lon="-0.70496">
        <ele>30.9</ele>
        <time>2014-04-19T15:21:27Z</time>
      </trkpt>
      <trkpt lat="47.87428" lon="-0.70526">
        <ele>30.9</ele>
        <time>2014-04-19T15:22:04Z</time>
      </trkpt>
      <trkpt lat="47.87374" lon="-0.7052">
        <ele>30.6</ele>
        <time>2014-04-19T15:22:14Z</time>
      </trkpt>
      <trkpt lat="47.87266" lon="-0.70459">
        <ele>30.5</ele>
        <time>2014-04-19T15:22:34Z</time>
      </trkpt>
      <trkpt lat="47.87211" lon="-0.70389">
        <ele>30</ele>
        <time>2014-04-19T15:22:47Z</time>
      </trkpt>
      <trkpt lat="47.87127" lon="-0.7029">
        <ele>30.2</ele>
        <time>2014-04-19T15:23:08Z</time>
      </trkpt>
      <trkpt lat="47.87075" lon="-0.70205">
        <ele>30.4</ele>
        <time>2014-04-19T15:23:23Z</time>
      </trkpt>
      <trkpt lat="47.87074" lon="-0.70121">
        <ele>29.9</ele>
        <time>2014-04-19T15:23:34Z</time>
      </trkpt>
      <trkpt lat="47.87057" lon="-0.70066">
        <ele>30.9</ele>
        <time>2014-04-19T15:23:46Z</time>
      </trkpt>
      <trkpt lat="47.87042" lon="-0.70069">
        <ele>33.7</ele>
        <time>2014-04-19T15:23:52Z</time>
      </trkpt>
      <trkpt lat="47.87007" lon="-0.69967">
        <ele>33.9</ele>
        <time>2014-04-19T15:24:20Z</time>
      </trkpt>
      <trkpt lat="47.8691" lon="-0.69885">
        <ele>34.9</ele>
        <time>2014-04-19T15:24:50Z</time>
      </trkpt>
      <trkpt lat="47.86854" lon="-0.69838">
        <ele>34.5</ele>
        <time>2014-04-19T15:25:02Z</time>
      </trkpt>
      <trkpt lat="47.86648" lon="-0.69734">
        <ele>35</ele>
        <time>2014-04-19T15:25:41Z</time>
      </trkpt>
      <trkpt lat="47.86557" lon="-0.6971">
        <ele>37.1</ele>
        <time>2014-04-19T15:26:02Z</time>
      </trkpt>
      <trkpt lat="47.86532" lon="-0.6962">
        <ele>30.2</ele>
        <time>2014-04-19T15:26:09Z</time>
      </trkpt>
      <trkpt lat="47.86498" lon="-0.69605">
        <ele>30.6</ele>
        <time>2014-04-19T15:26:16Z</time>
      </trkpt>
      <trkpt lat="47.86445" lon="-0.69582">
        <ele>30.9</ele>
        <time>2014-04-19T15:26:29Z</time>
      </trkpt>
      <trkpt lat="47.86411" lon="-0.69566">
        <ele>30.9</ele>
        <time>2014-04-19T15:26:41Z</time>
      </trkpt>
      <trkpt lat="47.86067" lon="-0.69452">
        <ele>29.3</ele>
        <time>2014-04-19T15:27:56Z</time>
      </trkpt>
      <trkpt lat="47.85643" lon="-0.69656">
        <ele>29.2</ele>
        <time>2014-04-19T15:33:12Z</time>
      </trkpt>
      <trkpt lat="47.85409" lon="-0.69753">
        <ele>28.8</ele>
        <time>2014-04-19T15:33:54Z</time>
      </trkpt>
      <trkpt lat="47.85193" lon="-0.69891">
        <ele>30.6</ele>
        <time>2014-04-19T15:34:39Z</time>
      </trkpt>
      <trkpt lat="47.85125" lon="-0.69918">
        <ele>30.8</ele>
        <time>2014-04-19T15:34:55Z</time>
      </trkpt>
      <trkpt lat="47.85001" lon="-0.70016">
        <ele>31.3</ele>
        <time>2014-04-19T15:35:21Z</time>
      </trkpt>
      <trkpt lat="47.84962" lon="-0.70067">
        <ele>31.8</ele>
        <time>2014-04-19T15:35:30Z</time>
      </trkpt>
      <trkpt lat="47.84899" lon="-0.70157">
        <ele>31.7</ele>
        <time>2014-04-19T15:35:44Z</time>
      </trkpt>
      <trkpt lat="47.84703" lon="-0.70315">
        <ele>31.7</ele>
        <time>2014-04-19T15:36:17Z</time>
      </trkpt>
      <trkpt lat="47.84593" lon="-0.70415">
        <ele>31.3</ele>
        <time>2014-04-19T15:36:36Z</time>
      </trkpt>
      <trkpt lat="47.8445" lon="-0.70469">
        <ele>31</ele>
        <time>2014-04-19T15:36:58Z</time>
      </trkpt>
      <trkpt lat="47.84387" lon="-0.70468">
        <ele>29.2</ele>
        <time>2014-04-19T15:37:08Z</time>
      </trkpt>
      <trkpt lat="47.8431" lon="-0.70405">
        <ele>30.4</ele>
        <time>2014-04-19T15:37:25Z</time>
      </trkpt>
      <trkpt lat="47.84285" lon="-0.7038">
        <ele>29.9</ele>
        <time>2014-04-19T15:37:32Z</time>
      </trkpt>
      <trkpt lat="47.84239" lon="-0.7036">
        <ele>29.9</ele>
        <time>2014-04-19T15:37:44Z</time>
      </trkpt>
      <trkpt lat="47.84043" lon="-0.70332">
        <ele>28.5</ele>
        <time>2014-04-19T15:38:22Z</time>
      </trkpt>
      <trkpt lat="47.83643" lon="-0.70466">
        <ele>28.6</ele>
        <time>2014-04-19T15:39:39Z</time>
      </trkpt>
      <trkpt lat="47.83434" lon="-0.7051">
        <ele>28.7</ele>
        <time>2014-04-19T15:40:17Z</time>
      </trkpt>
      <trkpt lat="47.83307" lon="-0.7054">
        <ele>28.3</ele>
        <time>2014-04-19T15:40:43Z</time>
      </trkpt>
      <trkpt lat="47.83198" lon="-0.70549">
        <ele>29.9</ele>
        <time>2014-04-19T15:41:11Z</time>
      </trkpt>
      <trkpt lat="47.8318" lon="-0.70543">
        <ele>29.7</ele>
        <time>2014-04-19T15:41:16Z</time>
      </trkpt>
      <trkpt lat="47.83066" lon="-0.70491">
        <ele>29.7</ele>
        <time>2014-04-19T15:43:02Z</time>
      </trkpt>
      <trkpt lat="47.82997" lon="-0.70426">
        <ele>31.7</ele>
        <time>2014-04-19T15:43:19Z</time>
      </trkpt>
      <trkpt lat="47.82859" lon="-0.70261">
        <ele>29.2</ele>
        <time>2014-04-19T15:44:21Z</time>
      </trkpt>
      <trkpt lat="47.82852" lon="-0.70255">
        <ele>28.7</ele>
        <time>2014-04-19T15:44:25Z</time>
      </trkpt>
    </trkseg>
  </trk>
</gpx>